sensor_id;sensor_type;location;lat;lon;timestamp;temperature;humidity
12622;DHT22;6376;48.182;-1.644;2022-11-06T00:00:15;14.50;88.70
12622;DHT22;6376;48.182;-1.644;2022-11-06T00:02:40;14.50;88.60
12622;DHT22;6376;48.182;-1.644;2022-11-06T00:05:06;14.50;88.90
12622;DHT22;6376;48.182;-1.644;2022-11-06T00:07:50;14.50;88.70
12622;DHT22;6376;48.182;-1.644;2022-11-06T00:10:16;14.50;88.70
12622;DHT22;6376;48.182;-1.644;2022-11-06T00:12:43;14.50;88.80
12622;DHT22;6376;48.182;-1.644;2022-11-06T00:15:09;14.50;88.80
12622;DHT22;6376;48.182;-1.644;2022-11-06T00:17:34;14.50;88.60
12622;DHT22;6376;48.182;-1.644;2022-11-06T00:20:00;14.50;88.80
12622;DHT22;6376;48.182;-1.644;2022-11-06T00:22:26;14.50;89.10
12622;DHT22;6376;48.182;-1.644;2022-11-06T00:24:52;14.50;88.70
12622;DHT22;6376;48.182;-1.644;2022-11-06T00:27:18;14.50;88.70
12622;DHT22;6376;48.182;-1.644;2022-11-06T00:29:43;14.50;88.60
12622;DHT22;6376;48.182;-1.644;2022-11-06T00:32:09;14.50;88.70
12622;DHT22;6376;48.182;-1.644;2022-11-06T00:34:34;14.50;88.80
12622;DHT22;6376;48.182;-1.644;2022-11-06T00:37:00;14.50;88.80
12622;DHT22;6376;48.182;-1.644;2022-11-06T00:39:26;14.50;88.70
12622;DHT22;6376;48.182;-1.644;2022-11-06T00:41:51;14.50;88.90
12622;DHT22;6376;48.182;-1.644;2022-11-06T00:44:17;14.50;89.00
12622;DHT22;6376;48.182;-1.644;2022-11-06T00:46:42;14.50;88.90
12622;DHT22;6376;48.182;-1.644;2022-11-06T00:49:08;14.50;88.90
12622;DHT22;6376;48.182;-1.644;2022-11-06T00:51:35;14.50;89.10
12622;DHT22;6376;48.182;-1.644;2022-11-06T00:54:05;14.50;89.00
12622;DHT22;6376;48.182;-1.644;2022-11-06T00:56:32;14.50;89.10
12622;DHT22;6376;48.182;-1.644;2022-11-06T00:58:59;14.50;89.10
12622;DHT22;6376;48.182;-1.644;2022-11-06T01:01:27;14.50;88.90
12622;DHT22;6376;48.182;-1.644;2022-11-06T01:03:55;14.50;89.00
12622;DHT22;6376;48.182;-1.644;2022-11-06T01:06:24;14.50;88.90
12622;DHT22;6376;48.182;-1.644;2022-11-06T01:08:50;14.50;89.20
12622;DHT22;6376;48.182;-1.644;2022-11-06T01:11:21;14.50;89.10
12622;DHT22;6376;48.182;-1.644;2022-11-06T01:13:49;14.50;88.80
12622;DHT22;6376;48.182;-1.644;2022-11-06T01:16:15;14.50;89.10
12622;DHT22;6376;48.182;-1.644;2022-11-06T01:18:42;14.50;89.30
12622;DHT22;6376;48.182;-1.644;2022-11-06T01:21:27;14.50;89.10
12622;DHT22;6376;48.182;-1.644;2022-11-06T01:23:55;14.50;89.20
12622;DHT22;6376;48.182;-1.644;2022-11-06T01:26:21;14.50;89.20
12622;DHT22;6376;48.182;-1.644;2022-11-06T01:28:47;14.50;89.10
12622;DHT22;6376;48.182;-1.644;2022-11-06T01:31:18;14.50;89.10
12622;DHT22;6376;48.182;-1.644;2022-11-06T01:33:44;14.50;89.10
12622;DHT22;6376;48.182;-1.644;2022-11-06T01:36:13;14.50;89.10
12622;DHT22;6376;48.182;-1.644;2022-11-06T01:38:40;14.50;89.00
12622;DHT22;6376;48.182;-1.644;2022-11-06T01:41:06;14.50;89.10
12622;DHT22;6376;48.182;-1.644;2022-11-06T01:43:53;14.50;89.20
12622;DHT22;6376;48.182;-1.644;2022-11-06T01:46:21;14.50;89.30
12622;DHT22;6376;48.182;-1.644;2022-11-06T01:48:58;14.50;89.30
12622;DHT22;6376;48.182;-1.644;2022-11-06T01:51:28;14.50;89.20
12622;DHT22;6376;48.182;-1.644;2022-11-06T01:53:55;14.50;89.20
12622;DHT22;6376;48.182;-1.644;2022-11-06T01:56:22;14.50;89.00
12622;DHT22;6376;48.182;-1.644;2022-11-06T01:58:50;14.50;89.20
12622;DHT22;6376;48.182;-1.644;2022-11-06T02:01:16;14.50;89.20
12622;DHT22;6376;48.182;-1.644;2022-11-06T02:04:01;14.50;89.60
12622;DHT22;6376;48.182;-1.644;2022-11-06T02:06:29;14.50;89.60
12622;DHT22;6376;48.182;-1.644;2022-11-06T02:08:55;14.50;89.60
12622;DHT22;6376;48.182;-1.644;2022-11-06T02:11:21;14.50;89.50
12622;DHT22;6376;48.182;-1.644;2022-11-06T02:14:01;14.50;89.40
12622;DHT22;6376;48.182;-1.644;2022-11-06T02:16:51;14.50;89.70
12622;DHT22;6376;48.182;-1.644;2022-11-06T02:27:34;14.50;89.70
12622;DHT22;6376;48.182;-1.644;2022-11-06T02:30:07;14.50;89.50
12622;DHT22;6376;48.182;-1.644;2022-11-06T02:32:44;14.50;90.00
12622;DHT22;6376;48.182;-1.644;2022-11-06T02:36:15;14.50;89.90
12622;DHT22;6376;48.182;-1.644;2022-11-06T02:38:25;14.50;90.20
12622;DHT22;6376;48.182;-1.644;2022-11-06T02:40:54;14.50;89.80
12622;DHT22;6376;48.182;-1.644;2022-11-06T02:43:27;14.50;90.00
12622;DHT22;6376;48.182;-1.644;2022-11-06T02:45:57;14.50;89.70
12622;DHT22;6376;48.182;-1.644;2022-11-06T02:48:39;14.50;89.70
12622;DHT22;6376;48.182;-1.644;2022-11-06T02:51:08;14.50;89.80
12622;DHT22;6376;48.182;-1.644;2022-11-06T02:53:37;14.50;89.60
12622;DHT22;6376;48.182;-1.644;2022-11-06T02:56:17;14.50;89.70
12622;DHT22;6376;48.182;-1.644;2022-11-06T02:59:03;14.50;90.00
12622;DHT22;6376;48.182;-1.644;2022-11-06T03:01:47;14.50;90.00
12622;DHT22;6376;48.182;-1.644;2022-11-06T03:04:29;14.50;89.90
12622;DHT22;6376;48.182;-1.644;2022-11-06T03:07:07;14.50;90.00
12622;DHT22;6376;48.182;-1.644;2022-11-06T03:09:34;14.50;89.80
12622;DHT22;6376;48.182;-1.644;2022-11-06T03:12:08;14.50;89.80
12622;DHT22;6376;48.182;-1.644;2022-11-06T03:23:19;14.50;90.10
12622;DHT22;6376;48.182;-1.644;2022-11-06T03:28:27;14.50;90.20
12622;DHT22;6376;48.182;-1.644;2022-11-06T03:30:57;14.50;90.00
12622;DHT22;6376;48.182;-1.644;2022-11-06T03:33:40;14.50;90.10
12622;DHT22;6376;48.182;-1.644;2022-11-06T03:36:12;14.50;90.10
12622;DHT22;6376;48.182;-1.644;2022-11-06T03:38:43;14.40;90.10
12622;DHT22;6376;48.182;-1.644;2022-11-06T03:41:15;14.40;90.10
12622;DHT22;6376;48.182;-1.644;2022-11-06T03:43:44;14.40;90.10
12622;DHT22;6376;48.182;-1.644;2022-11-06T03:46:14;14.50;90.00
12622;DHT22;6376;48.182;-1.644;2022-11-06T03:48:54;14.40;90.00
12622;DHT22;6376;48.182;-1.644;2022-11-06T03:51:39;14.40;90.10
12622;DHT22;6376;48.182;-1.644;2022-11-06T03:54:13;14.40;90.00
12622;DHT22;6376;48.182;-1.644;2022-11-06T03:56:44;14.50;90.10
12622;DHT22;6376;48.182;-1.644;2022-11-06T03:59:11;14.50;90.20
12622;DHT22;6376;48.182;-1.644;2022-11-06T04:01:42;14.40;90.10
12622;DHT22;6376;48.182;-1.644;2022-11-06T04:04:29;14.50;90.20
12622;DHT22;6376;48.182;-1.644;2022-11-06T04:07:01;14.50;90.10
12622;DHT22;6376;48.182;-1.644;2022-11-06T04:09:31;14.50;90.10
12622;DHT22;6376;48.182;-1.644;2022-11-06T04:12:19;14.50;90.20
12622;DHT22;6376;48.182;-1.644;2022-11-06T04:15:09;14.50;90.10
12622;DHT22;6376;48.182;-1.644;2022-11-06T04:17:36;14.50;90.10
12622;DHT22;6376;48.182;-1.644;2022-11-06T04:20:06;14.50;90.10
12622;DHT22;6376;48.182;-1.644;2022-11-06T04:22:54;14.50;90.30
12622;DHT22;6376;48.182;-1.644;2022-11-06T04:28:47;14.50;90.20
12622;DHT22;6376;48.182;-1.644;2022-11-06T04:36:47;14.50;90.20
12622;DHT22;6376;48.182;-1.644;2022-11-06T04:42:27;14.50;90.20
12622;DHT22;6376;48.182;-1.644;2022-11-06T04:44:57;14.50;90.20
12622;DHT22;6376;48.182;-1.644;2022-11-06T04:47:25;14.50;90.20
12622;DHT22;6376;48.182;-1.644;2022-11-06T04:49:56;14.50;90.20
12622;DHT22;6376;48.182;-1.644;2022-11-06T04:52:25;14.50;90.20
12622;DHT22;6376;48.182;-1.644;2022-11-06T04:54:53;14.50;90.30
12622;DHT22;6376;48.182;-1.644;2022-11-06T04:57:20;14.50;90.40
12622;DHT22;6376;48.182;-1.644;2022-11-06T04:59:46;14.50;90.20
12622;DHT22;6376;48.182;-1.644;2022-11-06T05:02:11;14.50;90.30
12622;DHT22;6376;48.182;-1.644;2022-11-06T05:04:37;14.50;90.20
12622;DHT22;6376;48.182;-1.644;2022-11-06T05:07:03;14.50;90.40
12622;DHT22;6376;48.182;-1.644;2022-11-06T05:09:28;14.50;90.40
12622;DHT22;6376;48.182;-1.644;2022-11-06T05:11:54;14.50;90.30
12622;DHT22;6376;48.182;-1.644;2022-11-06T05:14:19;14.50;90.30
12622;DHT22;6376;48.182;-1.644;2022-11-06T05:16:45;14.50;90.20
12622;DHT22;6376;48.182;-1.644;2022-11-06T05:19:11;14.50;90.30
12622;DHT22;6376;48.182;-1.644;2022-11-06T05:21:36;14.50;90.30
12622;DHT22;6376;48.182;-1.644;2022-11-06T05:24:20;14.50;90.40
12622;DHT22;6376;48.182;-1.644;2022-11-06T05:26:46;14.50;90.40
12622;DHT22;6376;48.182;-1.644;2022-11-06T05:29:12;14.50;90.40
12622;DHT22;6376;48.182;-1.644;2022-11-06T05:31:38;14.50;90.50
12622;DHT22;6376;48.182;-1.644;2022-11-06T05:34:04;14.50;90.50
12622;DHT22;6376;48.182;-1.644;2022-11-06T05:36:30;14.50;90.60
12622;DHT22;6376;48.182;-1.644;2022-11-06T05:38:55;14.50;90.70
12622;DHT22;6376;48.182;-1.644;2022-11-06T05:41:21;14.50;90.70
12622;DHT22;6376;48.182;-1.644;2022-11-06T05:43:47;14.50;90.70
12622;DHT22;6376;48.182;-1.644;2022-11-06T05:46:12;14.50;90.50
12622;DHT22;6376;48.182;-1.644;2022-11-06T05:48:38;14.50;90.50
12622;DHT22;6376;48.182;-1.644;2022-11-06T05:51:05;14.50;90.70
12622;DHT22;6376;48.182;-1.644;2022-11-06T05:53:33;14.50;90.60
12622;DHT22;6376;48.182;-1.644;2022-11-06T05:55:59;14.50;90.60
12622;DHT22;6376;48.182;-1.644;2022-11-06T05:58:25;14.50;90.50
12622;DHT22;6376;48.182;-1.644;2022-11-06T06:00:52;14.50;90.60
12622;DHT22;6376;48.182;-1.644;2022-11-06T06:03:18;14.50;90.70
12622;DHT22;6376;48.182;-1.644;2022-11-06T06:05:45;14.50;90.70
12622;DHT22;6376;48.182;-1.644;2022-11-06T06:08:11;14.50;90.70
12622;DHT22;6376;48.182;-1.644;2022-11-06T06:10:40;14.50;90.60
12622;DHT22;6376;48.182;-1.644;2022-11-06T06:13:06;14.50;90.70
12622;DHT22;6376;48.182;-1.644;2022-11-06T06:15:33;14.50;91.10
12622;DHT22;6376;48.182;-1.644;2022-11-06T06:17:58;14.50;90.80
12622;DHT22;6376;48.182;-1.644;2022-11-06T06:20:24;14.50;90.70
12622;DHT22;6376;48.182;-1.644;2022-11-06T06:22:57;14.50;90.70
12622;DHT22;6376;48.182;-1.644;2022-11-06T06:25:24;14.50;90.50
12622;DHT22;6376;48.182;-1.644;2022-11-06T06:27:50;14.50;90.70
12622;DHT22;6376;48.182;-1.644;2022-11-06T06:30:16;14.50;90.60
12622;DHT22;6376;48.182;-1.644;2022-11-06T06:32:41;14.50;90.70
12622;DHT22;6376;48.182;-1.644;2022-11-06T06:35:07;14.50;91.10
12622;DHT22;6376;48.182;-1.644;2022-11-06T06:37:33;14.50;90.60
12622;DHT22;6376;48.182;-1.644;2022-11-06T06:39:59;14.50;90.80
12622;DHT22;6376;48.182;-1.644;2022-11-06T06:42:27;14.50;90.80
12622;DHT22;6376;48.182;-1.644;2022-11-06T06:44:53;14.50;90.70
12622;DHT22;6376;48.182;-1.644;2022-11-06T06:47:18;14.50;90.80
12622;DHT22;6376;48.182;-1.644;2022-11-06T06:49:44;14.50;90.90
12622;DHT22;6376;48.182;-1.644;2022-11-06T06:52:10;14.50;90.90
12622;DHT22;6376;48.182;-1.644;2022-11-06T06:54:36;14.50;90.90
12622;DHT22;6376;48.182;-1.644;2022-11-06T06:57:02;14.50;90.90
12622;DHT22;6376;48.182;-1.644;2022-11-06T06:59:28;14.50;90.80
12622;DHT22;6376;48.182;-1.644;2022-11-06T07:01:54;14.50;90.90
12622;DHT22;6376;48.182;-1.644;2022-11-06T07:04:19;14.50;90.80
12622;DHT22;6376;48.182;-1.644;2022-11-06T07:06:45;14.50;91.00
12622;DHT22;6376;48.182;-1.644;2022-11-06T07:09:11;14.50;90.80
12622;DHT22;6376;48.182;-1.644;2022-11-06T07:11:36;14.50;91.00
12622;DHT22;6376;48.182;-1.644;2022-11-06T07:14:02;14.50;90.90
12622;DHT22;6376;48.182;-1.644;2022-11-06T07:16:28;14.50;90.90
12622;DHT22;6376;48.182;-1.644;2022-11-06T07:18:54;14.50;90.90
12622;DHT22;6376;48.182;-1.644;2022-11-06T07:21:20;14.50;91.00
12622;DHT22;6376;48.182;-1.644;2022-11-06T07:23:45;14.50;91.00
12622;DHT22;6376;48.182;-1.644;2022-11-06T07:26:11;14.50;91.00
12622;DHT22;6376;48.182;-1.644;2022-11-06T07:28:36;14.50;91.00
12622;DHT22;6376;48.182;-1.644;2022-11-06T07:31:05;14.50;90.80
12622;DHT22;6376;48.182;-1.644;2022-11-06T07:33:31;14.50;90.90
12622;DHT22;6376;48.182;-1.644;2022-11-06T07:38:32;14.50;91.00
12622;DHT22;6376;48.182;-1.644;2022-11-06T07:41:01;14.50;90.90
12622;DHT22;6376;48.182;-1.644;2022-11-06T07:43:26;14.50;91.10
12622;DHT22;6376;48.182;-1.644;2022-11-06T07:45:52;14.50;91.20
12622;DHT22;6376;48.182;-1.644;2022-11-06T07:48:17;14.50;91.00
12622;DHT22;6376;48.182;-1.644;2022-11-06T07:50:43;14.50;91.10
12622;DHT22;6376;48.182;-1.644;2022-11-06T07:53:09;14.50;91.00
12622;DHT22;6376;48.182;-1.644;2022-11-06T07:55:34;14.50;91.10
12622;DHT22;6376;48.182;-1.644;2022-11-06T07:58:00;14.50;91.10
12622;DHT22;6376;48.182;-1.644;2022-11-06T08:00:25;14.50;91.30
12622;DHT22;6376;48.182;-1.644;2022-11-06T08:02:52;14.50;91.10
12622;DHT22;6376;48.182;-1.644;2022-11-06T08:05:18;14.50;91.00
12622;DHT22;6376;48.182;-1.644;2022-11-06T08:07:44;14.50;91.10
12622;DHT22;6376;48.182;-1.644;2022-11-06T08:10:09;14.50;91.10
12622;DHT22;6376;48.182;-1.644;2022-11-06T08:12:35;14.50;91.00
12622;DHT22;6376;48.182;-1.644;2022-11-06T08:15:00;14.50;91.10
12622;DHT22;6376;48.182;-1.644;2022-11-06T08:17:27;14.50;91.20
12622;DHT22;6376;48.182;-1.644;2022-11-06T08:19:54;14.50;91.10
12622;DHT22;6376;48.182;-1.644;2022-11-06T08:22:20;14.50;91.10
12622;DHT22;6376;48.182;-1.644;2022-11-06T08:24:45;14.50;91.10
12622;DHT22;6376;48.182;-1.644;2022-11-06T08:27:11;14.50;91.10
12622;DHT22;6376;48.182;-1.644;2022-11-06T08:29:36;14.50;91.10
12622;DHT22;6376;48.182;-1.644;2022-11-06T08:32:02;14.50;91.10
12622;DHT22;6376;48.182;-1.644;2022-11-06T08:34:28;14.50;91.20
12622;DHT22;6376;48.182;-1.644;2022-11-06T08:36:53;14.50;91.30
12622;DHT22;6376;48.182;-1.644;2022-11-06T08:39:19;14.50;91.20
12622;DHT22;6376;48.182;-1.644;2022-11-06T08:41:45;14.50;91.20
12622;DHT22;6376;48.182;-1.644;2022-11-06T08:44:10;14.50;91.30
12622;DHT22;6376;48.182;-1.644;2022-11-06T08:46:36;14.50;91.40
12622;DHT22;6376;48.182;-1.644;2022-11-06T08:49:01;14.50;91.10
12622;DHT22;6376;48.182;-1.644;2022-11-06T08:51:27;14.50;91.10
12622;DHT22;6376;48.182;-1.644;2022-11-06T08:53:53;14.50;91.30
12622;DHT22;6376;48.182;-1.644;2022-11-06T08:56:18;14.50;91.00
12622;DHT22;6376;48.182;-1.644;2022-11-06T08:58:44;14.50;90.80
12622;DHT22;6376;48.182;-1.644;2022-11-06T09:01:09;14.50;90.80
12622;DHT22;6376;48.182;-1.644;2022-11-06T09:03:35;14.50;90.90
12622;DHT22;6376;48.182;-1.644;2022-11-06T09:06:02;14.50;90.80
12622;DHT22;6376;48.182;-1.644;2022-11-06T09:08:28;14.50;90.90
12622;DHT22;6376;48.182;-1.644;2022-11-06T09:10:54;14.50;90.80
12622;DHT22;6376;48.182;-1.644;2022-11-06T09:13:20;14.50;90.80
12622;DHT22;6376;48.182;-1.644;2022-11-06T09:15:45;14.50;90.90
12622;DHT22;6376;48.182;-1.644;2022-11-06T09:18:11;14.50;91.00
12622;DHT22;6376;48.182;-1.644;2022-11-06T09:20:37;14.50;90.80
12622;DHT22;6376;48.182;-1.644;2022-11-06T09:23:04;14.50;91.00
12622;DHT22;6376;48.182;-1.644;2022-11-06T09:25:30;14.50;90.90
12622;DHT22;6376;48.182;-1.644;2022-11-06T09:27:57;14.50;90.90
12622;DHT22;6376;48.182;-1.644;2022-11-06T09:30:23;14.50;90.90
12622;DHT22;6376;48.182;-1.644;2022-11-06T09:32:51;14.50;90.90
12622;DHT22;6376;48.182;-1.644;2022-11-06T09:35:19;14.50;91.00
12622;DHT22;6376;48.182;-1.644;2022-11-06T09:37:44;14.50;90.80
12622;DHT22;6376;48.182;-1.644;2022-11-06T09:40:24;14.50;90.90
12622;DHT22;6376;48.182;-1.644;2022-11-06T09:45:28;14.50;90.90
12622;DHT22;6376;48.182;-1.644;2022-11-06T09:53:31;14.50;90.80
12622;DHT22;6376;48.182;-1.644;2022-11-06T09:55:59;14.50;90.90
12622;DHT22;6376;48.182;-1.644;2022-11-06T09:58:31;14.50;90.90
12622;DHT22;6376;48.182;-1.644;2022-11-06T10:01:00;14.50;90.90
12622;DHT22;6376;48.182;-1.644;2022-11-06T10:03:57;14.50;91.00
12622;DHT22;6376;48.182;-1.644;2022-11-06T10:06:24;14.50;91.20
12622;DHT22;6376;48.182;-1.644;2022-11-06T10:08:53;14.50;90.90
12622;DHT22;6376;48.182;-1.644;2022-11-06T10:22:37;14.50;90.80
12622;DHT22;6376;48.182;-1.644;2022-11-06T10:25:20;14.60;91.00
12622;DHT22;6376;48.182;-1.644;2022-11-06T10:28:03;14.60;90.90
12622;DHT22;6376;48.182;-1.644;2022-11-06T10:33:47;14.60;90.90
12622;DHT22;6376;48.182;-1.644;2022-11-06T10:36:34;14.60;90.80
12622;DHT22;6376;48.182;-1.644;2022-11-06T10:39:03;14.60;91.00
12622;DHT22;6376;48.182;-1.644;2022-11-06T10:41:34;14.60;90.80
12622;DHT22;6376;48.182;-1.644;2022-11-06T10:44:34;14.60;91.00
12622;DHT22;6376;48.182;-1.644;2022-11-06T10:47:03;14.60;90.80
12622;DHT22;6376;48.182;-1.644;2022-11-06T10:58:09;14.70;90.70
12622;DHT22;6376;48.182;-1.644;2022-11-06T11:00:37;14.70;90.50
12622;DHT22;6376;48.182;-1.644;2022-11-06T11:03:14;14.80;90.40
12622;DHT22;6376;48.182;-1.644;2022-11-06T11:05:42;15.00;90.00
12622;DHT22;6376;48.182;-1.644;2022-11-06T11:11:18;15.20;89.10
12622;DHT22;6376;48.182;-1.644;2022-11-06T11:13:47;15.20;88.80
12622;DHT22;6376;48.182;-1.644;2022-11-06T11:16:16;15.20;88.70
12622;DHT22;6376;48.182;-1.644;2022-11-06T11:18:44;15.20;88.80
12622;DHT22;6376;48.182;-1.644;2022-11-06T11:21:13;15.20;89.00
12622;DHT22;6376;48.182;-1.644;2022-11-06T11:23:40;15.20;88.80
12622;DHT22;6376;48.182;-1.644;2022-11-06T11:26:21;15.20;88.80
12622;DHT22;6376;48.182;-1.644;2022-11-06T11:29:14;15.20;89.20
12622;DHT22;6376;48.182;-1.644;2022-11-06T11:31:45;15.10;89.10
12622;DHT22;6376;48.182;-1.644;2022-11-06T11:34:18;15.10;89.30
12622;DHT22;6376;48.182;-1.644;2022-11-06T11:39:32;15.10;89.60
12622;DHT22;6376;48.182;-1.644;2022-11-06T11:47:40;15.10;89.60
12622;DHT22;6376;48.182;-1.644;2022-11-06T11:52:46;15.10;89.70
12622;DHT22;6376;48.182;-1.644;2022-11-06T11:55:18;15.10;89.50
12622;DHT22;6376;48.182;-1.644;2022-11-06T11:57:49;15.10;89.50
12622;DHT22;6376;48.182;-1.644;2022-11-06T12:00:18;15.10;89.60
12622;DHT22;6376;48.182;-1.644;2022-11-06T12:03:00;15.10;89.60
12622;DHT22;6376;48.182;-1.644;2022-11-06T12:05:35;15.10;89.40
12622;DHT22;6376;48.182;-1.644;2022-11-06T12:08:02;15.10;89.90
12622;DHT22;6376;48.182;-1.644;2022-11-06T12:10:37;15.10;89.80
12622;DHT22;6376;48.182;-1.644;2022-11-06T12:13:17;15.10;89.50
12622;DHT22;6376;48.182;-1.644;2022-11-06T12:15:57;15.10;89.60
12622;DHT22;6376;48.182;-1.644;2022-11-06T12:23:46;15.10;90.10
12622;DHT22;6376;48.182;-1.644;2022-11-06T12:29:09;15.10;89.70
12622;DHT22;6376;48.182;-1.644;2022-11-06T12:31:55;15.10;89.60
12622;DHT22;6376;48.182;-1.644;2022-11-06T12:34:32;15.10;89.60
12622;DHT22;6376;48.182;-1.644;2022-11-06T12:37:21;15.10;89.40
12622;DHT22;6376;48.182;-1.644;2022-11-06T12:39:56;15.10;89.30
12622;DHT22;6376;48.182;-1.644;2022-11-06T12:42:26;15.10;89.30
12622;DHT22;6376;48.182;-1.644;2022-11-06T12:44:54;15.10;89.50
12622;DHT22;6376;48.182;-1.644;2022-11-06T12:47:37;15.10;89.30
12622;DHT22;6376;48.182;-1.644;2022-11-06T12:50:40;15.10;89.50
12622;DHT22;6376;48.182;-1.644;2022-11-06T12:53:23;15.10;89.30
12622;DHT22;6376;48.182;-1.644;2022-11-06T12:55:58;15.10;89.20
12622;DHT22;6376;48.182;-1.644;2022-11-06T12:58:49;15.10;89.50
12622;DHT22;6376;48.182;-1.644;2022-11-06T13:01:43;15.10;89.40
12622;DHT22;6376;48.182;-1.644;2022-11-06T13:10:02;15.10;89.30
12622;DHT22;6376;48.182;-1.644;2022-11-06T13:12:42;15.10;89.60
12622;DHT22;6376;48.182;-1.644;2022-11-06T13:17:51;15.10;89.40
12622;DHT22;6376;48.182;-1.644;2022-11-06T13:23:45;15.10;89.40
12622;DHT22;6376;48.182;-1.644;2022-11-06T13:26:40;15.20;89.30
12622;DHT22;6376;48.182;-1.644;2022-11-06T13:29:12;15.20;89.30
12622;DHT22;6376;48.182;-1.644;2022-11-06T13:31:42;15.20;89.10
12622;DHT22;6376;48.182;-1.644;2022-11-06T13:34:16;15.20;89.10
12622;DHT22;6376;48.182;-1.644;2022-11-06T13:36:43;15.20;89.10
12622;DHT22;6376;48.182;-1.644;2022-11-06T13:39:39;15.20;89.10
12622;DHT22;6376;48.182;-1.644;2022-11-06T13:42:22;15.20;89.20
12622;DHT22;6376;48.182;-1.644;2022-11-06T13:44:52;15.20;89.20
12622;DHT22;6376;48.182;-1.644;2022-11-06T13:48:14;15.10;89.20
12622;DHT22;6376;48.182;-1.644;2022-11-06T13:53:22;15.20;89.30
12622;DHT22;6376;48.182;-1.644;2022-11-06T13:55:57;15.10;89.30
12622;DHT22;6376;48.182;-1.644;2022-11-06T14:01:17;15.10;89.30
12622;DHT22;6376;48.182;-1.644;2022-11-06T14:06:52;15.10;89.50
12622;DHT22;6376;48.182;-1.644;2022-11-06T14:09:21;15.10;89.80
12622;DHT22;6376;48.182;-1.644;2022-11-06T14:11:59;15.10;89.90
12622;DHT22;6376;48.182;-1.644;2022-11-06T14:14:28;15.10;89.90
12622;DHT22;6376;48.182;-1.644;2022-11-06T14:22:35;15.10;90.00
12622;DHT22;6376;48.182;-1.644;2022-11-06T14:32:56;15.10;90.00
12622;DHT22;6376;48.182;-1.644;2022-11-06T14:40:52;15.00;90.00
12622;DHT22;6376;48.182;-1.644;2022-11-06T14:46:17;15.00;90.00
12622;DHT22;6376;48.182;-1.644;2022-11-06T14:48:46;15.00;90.00
12622;DHT22;6376;48.182;-1.644;2022-11-06T14:51:13;15.00;90.10
12622;DHT22;6376;48.182;-1.644;2022-11-06T14:53:48;15.00;90.10
12622;DHT22;6376;48.182;-1.644;2022-11-06T14:56:24;15.00;90.20
12622;DHT22;6376;48.182;-1.644;2022-11-06T14:59:05;15.00;90.50
12622;DHT22;6376;48.182;-1.644;2022-11-06T15:01:33;15.00;90.10
12622;DHT22;6376;48.182;-1.644;2022-11-06T15:04:05;15.00;90.10
12622;DHT22;6376;48.182;-1.644;2022-11-06T15:09:56;15.00;90.10
12622;DHT22;6376;48.182;-1.644;2022-11-06T15:11:58;15.00;90.20
12622;DHT22;6376;48.182;-1.644;2022-11-06T15:16:53;14.90;90.10
12622;DHT22;6376;48.182;-1.644;2022-11-06T15:20:09;15.00;90.20
12622;DHT22;6376;48.182;-1.644;2022-11-06T15:22:33;15.00;90.20
12622;DHT22;6376;48.182;-1.644;2022-11-06T15:28:11;14.90;90.10
12622;DHT22;6376;48.182;-1.644;2022-11-06T15:31:03;14.90;90.10
12622;DHT22;6376;48.182;-1.644;2022-11-06T15:33:34;14.90;90.20
12622;DHT22;6376;48.182;-1.644;2022-11-06T15:36:04;14.90;90.20
12622;DHT22;6376;48.182;-1.644;2022-11-06T15:38:41;14.90;90.20
12622;DHT22;6376;48.182;-1.644;2022-11-06T15:41:13;14.90;90.20
12622;DHT22;6376;48.182;-1.644;2022-11-06T15:43:43;14.90;90.20
12622;DHT22;6376;48.182;-1.644;2022-11-06T15:48:42;14.90;90.20
12622;DHT22;6376;48.182;-1.644;2022-11-06T15:51:38;14.90;90.30
12622;DHT22;6376;48.182;-1.644;2022-11-06T15:54:04;14.90;90.30
12622;DHT22;6376;48.182;-1.644;2022-11-06T15:56:32;14.90;90.30
12622;DHT22;6376;48.182;-1.644;2022-11-06T15:59:12;14.90;90.30
12622;DHT22;6376;48.182;-1.644;2022-11-06T16:01:39;14.90;90.30
12622;DHT22;6376;48.182;-1.644;2022-11-06T16:04:10;14.90;90.30
12622;DHT22;6376;48.182;-1.644;2022-11-06T16:06:38;14.90;90.20
12622;DHT22;6376;48.182;-1.644;2022-11-06T16:09:04;14.90;90.30
12622;DHT22;6376;48.182;-1.644;2022-11-06T16:11:31;14.90;90.30
12622;DHT22;6376;48.182;-1.644;2022-11-06T16:13:58;14.90;90.30
12622;DHT22;6376;48.182;-1.644;2022-11-06T16:18:57;14.80;90.30
12622;DHT22;6376;48.182;-1.644;2022-11-06T16:21:25;14.80;90.60
12622;DHT22;6376;48.182;-1.644;2022-11-06T16:24:00;14.80;90.30
12622;DHT22;6376;48.182;-1.644;2022-11-06T16:26:36;14.80;90.30
12622;DHT22;6376;48.182;-1.644;2022-11-06T16:29:21;14.80;90.30
12622;DHT22;6376;48.182;-1.644;2022-11-06T16:31:56;14.80;90.30
12622;DHT22;6376;48.182;-1.644;2022-11-06T16:34:38;14.80;90.30
12622;DHT22;6376;48.182;-1.644;2022-11-06T16:39:52;14.80;90.30
12622;DHT22;6376;48.182;-1.644;2022-11-06T16:44:50;14.80;90.30
12622;DHT22;6376;48.182;-1.644;2022-11-06T16:47:23;14.80;90.30
12622;DHT22;6376;48.182;-1.644;2022-11-06T16:49:53;14.80;90.40
12622;DHT22;6376;48.182;-1.644;2022-11-06T16:52:20;14.80;90.40
12622;DHT22;6376;48.182;-1.644;2022-11-06T16:57:44;14.80;90.40
12622;DHT22;6376;48.182;-1.644;2022-11-06T17:02:54;14.70;90.50
12622;DHT22;6376;48.182;-1.644;2022-11-06T17:05:21;14.70;90.50
12622;DHT22;6376;48.182;-1.644;2022-11-06T17:08:03;14.70;90.50
12622;DHT22;6376;48.182;-1.644;2022-11-06T17:15:43;14.70;90.50
12622;DHT22;6376;48.182;-1.644;2022-11-06T17:18:21;14.70;90.50
12622;DHT22;6376;48.182;-1.644;2022-11-06T17:20:51;14.70;90.50
12622;DHT22;6376;48.182;-1.644;2022-11-06T17:23:18;14.70;90.50
12622;DHT22;6376;48.182;-1.644;2022-11-06T17:25:44;14.70;90.50
12622;DHT22;6376;48.182;-1.644;2022-11-06T17:28:11;14.70;90.50
12622;DHT22;6376;48.182;-1.644;2022-11-06T17:30:37;14.70;90.50
12622;DHT22;6376;48.182;-1.644;2022-11-06T17:33:03;14.70;90.70
12622;DHT22;6376;48.182;-1.644;2022-11-06T17:35:28;14.70;90.50
12622;DHT22;6376;48.182;-1.644;2022-11-06T17:37:54;14.70;90.50
12622;DHT22;6376;48.182;-1.644;2022-11-06T17:40:20;14.70;90.50
12622;DHT22;6376;48.182;-1.644;2022-11-06T17:42:45;14.70;90.50
12622;DHT22;6376;48.182;-1.644;2022-11-06T17:45:11;14.70;90.50
12622;DHT22;6376;48.182;-1.644;2022-11-06T17:47:36;14.70;90.60
12622;DHT22;6376;48.182;-1.644;2022-11-06T17:50:02;14.70;90.60
12622;DHT22;6376;48.182;-1.644;2022-11-06T17:52:28;14.70;90.60
12622;DHT22;6376;48.182;-1.644;2022-11-06T17:54:54;14.70;90.60
12622;DHT22;6376;48.182;-1.644;2022-11-06T17:57:20;14.70;90.60
12622;DHT22;6376;48.182;-1.644;2022-11-06T17:59:46;14.70;90.60
12622;DHT22;6376;48.182;-1.644;2022-11-06T18:02:13;14.60;90.60
12622;DHT22;6376;48.182;-1.644;2022-11-06T18:04:39;14.60;90.60
12622;DHT22;6376;48.182;-1.644;2022-11-06T18:07:05;14.60;90.60
12622;DHT22;6376;48.182;-1.644;2022-11-06T18:09:31;14.60;90.60
12622;DHT22;6376;48.182;-1.644;2022-11-06T18:11:57;14.60;90.60
12622;DHT22;6376;48.182;-1.644;2022-11-06T18:14:24;14.60;90.60
12622;DHT22;6376;48.182;-1.644;2022-11-06T18:16:50;14.60;90.60
12622;DHT22;6376;48.182;-1.644;2022-11-06T18:19:19;14.60;90.60
12622;DHT22;6376;48.182;-1.644;2022-11-06T18:21:46;14.60;90.60
12622;DHT22;6376;48.182;-1.644;2022-11-06T18:24:12;14.60;90.60
12622;DHT22;6376;48.182;-1.644;2022-11-06T18:26:37;14.60;90.60
12622;DHT22;6376;48.182;-1.644;2022-11-06T18:29:04;14.60;90.60